sensor_id;sensor_type;location;lat;lon;timestamp;pressure;altitude;pressure_sealevel;temperature;humidity
20696;BME280;10507;52.754;13.040;2023-07-29T00:01:22;101245.59;;;17.41;100.00
20696;BME280;10507;52.754;13.040;2023-07-29T00:03:51;101258.53;;;17.36;100.00
20696;BME280;10507;52.754;13.040;2023-07-29T00:06:20;101272.13;;;17.35;100.00
20696;BME280;10507;52.754;13.040;2023-07-29T00:08:48;101294.81;;;17.32;100.00
20696;BME280;10507;52.754;13.040;2023-07-29T00:11:16;101289.72;;;17.28;100.00
20696;BME280;10507;52.754;13.040;2023-07-29T00:13:44;101284.88;;;17.20;100.00
20696;BME280;10507;52.754;13.040;2023-07-29T00:16:13;101273.50;;;17.15;100.00
20696;BME280;10507;52.754;13.040;2023-07-29T00:18:44;101260.00;;;17.02;100.00
20696;BME280;10507;52.754;13.040;2023-07-29T00:21:15;101261.03;;;16.99;100.00
20696;BME280;10507;52.754;13.040;2023-07-29T00:23:45;101288.69;;;17.03;100.00
20696;BME280;10507;52.754;13.040;2023-07-29T00:26:14;101294.47;;;16.97;100.00
20696;BME280;10507;52.754;13.040;2023-07-29T00:28:45;101291.91;;;16.95;100.00
20696;BME280;10507;52.754;13.040;2023-07-29T00:31:14;101294.69;;;16.94;100.00
20696;BME280;10507;52.754;13.040;2023-07-29T00:33:42;101295.78;;;16.91;100.00
20696;BME280;10507;52.754;13.040;2023-07-29T00:36:12;101296.84;;;16.89;100.00
20696;BME280;10507;52.754;13.040;2023-07-29T00:38:42;101302.34;;;16.87;100.00
20696;BME280;10507;52.754;13.040;2023-07-29T00:41:16;101303.31;;;16.86;100.00
20696;BME280;10507;52.754;13.040;2023-07-29T00:44:03;101278.84;;;16.75;100.00
20696;BME280;10507;52.754;13.040;2023-07-29T00:47:11;101254.00;;;16.70;100.00
20696;BME280;10507;52.754;13.040;2023-07-29T00:49:42;101265.63;;;16.70;100.00
20696;BME280;10507;52.754;13.040;2023-07-29T00:52:11;101254.38;;;16.63;100.00
20696;BME280;10507;52.754;13.040;2023-07-29T00:54:42;101250.97;;;16.61;100.00
20696;BME280;10507;52.754;13.040;2023-07-29T00:57:11;101254.38;;;16.63;100.00
20696;BME280;10507;52.754;13.040;2023-07-29T00:59:41;101258.06;;;16.62;100.00
20696;BME280;10507;52.754;13.040;2023-07-29T01:02:10;101278.78;;;16.62;100.00
20696;BME280;10507;52.754;13.040;2023-07-29T01:04:38;101318.72;;;16.70;100.00
20696;BME280;10507;52.754;13.040;2023-07-29T01:07:14;101315.47;;;16.65;100.00
20696;BME280;10507;52.754;13.040;2023-07-29T01:09:55;101272.25;;;16.52;100.00
20696;BME280;10507;52.754;13.040;2023-07-29T01:12:32;101267.06;;;16.49;100.00
20696;BME280;10507;52.754;13.040;2023-07-29T01:15:09;101269.84;;;16.47;100.00
20696;BME280;10507;52.754;13.040;2023-07-29T01:17:42;101287.56;;;16.51;100.00
20696;BME280;10507;52.754;13.040;2023-07-29T01:20:14;101288.63;;;16.49;100.00
20696;BME280;10507;52.754;13.040;2023-07-29T01:22:43;101294.19;;;16.46;100.00
20696;BME280;10507;52.754;13.040;2023-07-29T01:25:13;101288.16;;;16.42;100.00
20696;BME280;10507;52.754;13.040;2023-07-29T01:27:43;101274.13;;;16.37;100.00
20696;BME280;10507;52.754;13.040;2023-07-29T01:30:39;101297.31;;;16.39;100.00
20696;BME280;10507;52.754;13.040;2023-07-29T01:33:11;101268.25;;;16.30;100.00
20696;BME280;10507;52.754;13.040;2023-07-29T01:35:44;101258.50;;;16.28;100.00
20696;BME280;10507;52.754;13.040;2023-07-29T01:38:17;101256.03;;;16.25;100.00
20696;BME280;10507;52.754;13.040;2023-07-29T01:40:48;101294.13;;;16.33;100.00
20696;BME280;10507;52.754;13.040;2023-07-29T01:43:16;101307.63;;;16.33;100.00
20696;BME280;10507;52.754;13.040;2023-07-29T01:45:45;101303.28;;;16.30;100.00
20696;BME280;10507;52.754;13.040;2023-07-29T01:48:13;101292.97;;;16.23;100.00
20696;BME280;10507;52.754;13.040;2023-07-29T01:50:41;101312.53;;;16.26;100.00
20696;BME280;10507;52.754;13.040;2023-07-29T01:53:09;101373.06;;;16.35;100.00
20696;BME280;10507;52.754;13.040;2023-07-29T01:55:38;101386.63;;;16.33;100.00
20696;BME280;10507;52.754;13.040;2023-07-29T01:58:08;101415.41;;;16.33;100.00
20696;BME280;10507;52.754;13.040;2023-07-29T02:00:36;101434.06;;;16.36;100.00
20696;BME280;10507;52.754;13.040;2023-07-29T02:03:04;101473.00;;;16.46;100.00
20696;BME280;10507;52.754;13.040;2023-07-29T02:05:32;101499.75;;;16.49;100.00
20696;BME280;10507;52.754;13.040;2023-07-29T02:08:00;101506.00;;;16.50;100.00
20696;BME280;10507;52.754;13.040;2023-07-29T02:10:28;101522.00;;;16.53;100.00
20696;BME280;10507;52.754;13.040;2023-07-29T02:12:56;101517.69;;;16.50;100.00
20696;BME280;10507;52.754;13.040;2023-07-29T02:15:25;101530.38;;;16.48;100.00
20696;BME280;10507;52.754;13.040;2023-07-29T02:17:54;101551.75;;;16.51;100.00
20696;BME280;10507;52.754;13.040;2023-07-29T02:20:22;101566.88;;;16.54;100.00
20696;BME280;10507;52.754;13.040;2023-07-29T02:22:50;101584.69;;;16.56;100.00
20696;BME280;10507;52.754;13.040;2023-07-29T02:25:18;101584.88;;;16.53;100.00
20696;BME280;10507;52.754;13.040;2023-07-29T02:27:46;101594.69;;;16.54;100.00
20696;BME280;10507;52.754;13.040;2023-07-29T02:30:14;101607.22;;;16.55;100.00
20696;BME280;10507;52.754;13.040;2023-07-29T02:33:08;101621.47;;;16.57;100.00
20696;BME280;10507;52.754;13.040;2023-07-29T02:35:36;101620.50;;;16.58;100.00
20696;BME280;10507;52.754;13.040;2023-07-29T02:38:04;101623.03;;;16.61;100.00
20696;BME280;10507;52.754;13.040;2023-07-29T02:40:32;101624.69;;;16.64;100.00
20696;BME280;10507;52.754;13.040;2023-07-29T02:43:00;101625.34;;;16.68;100.00
20696;BME280;10507;52.754;13.040;2023-07-29T02:45:28;101618.81;;;16.72;100.00
20696;BME280;10507;52.754;13.040;2023-07-29T02:47:57;101614.28;;;16.72;100.00
20696;BME280;10507;52.754;13.040;2023-07-29T02:50:26;101600.63;;;16.75;100.00
20696;BME280;10507;52.754;13.040;2023-07-29T02:52:54;101582.69;;;16.74;100.00
20696;BME280;10507;52.754;13.040;2023-07-29T02:55:22;101568.16;;;16.77;100.00
20696;BME280;10507;52.754;13.040;2023-07-29T02:57:50;101546.56;;;16.77;100.00
20696;BME280;10507;52.754;13.040;2023-07-29T03:00:18;101524.16;;;16.76;100.00
20696;BME280;10507;52.754;13.040;2023-07-29T03:02:46;101519.47;;;16.80;100.00
20696;BME280;10507;52.754;13.040;2023-07-29T03:05:15;101510.56;;;16.78;100.00
20696;BME280;10507;52.754;13.040;2023-07-29T03:07:44;101484.53;;;16.77;100.00
20696;BME280;10507;52.754;13.040;2023-07-29T03:10:13;101471.06;;;16.77;100.00
20696;BME280;10507;52.754;13.040;2023-07-29T03:12:41;101438.91;;;16.74;100.00
20696;BME280;10507;52.754;13.040;2023-07-29T03:15:10;101419.94;;;16.75;100.00
20696;BME280;10507;52.754;13.040;2023-07-29T03:17:38;101395.75;;;16.74;100.00
20696;BME280;10507;52.754;13.040;2023-07-29T03:20:07;101377.84;;;16.73;100.00
20696;BME280;10507;52.754;13.040;2023-07-29T03:22:35;101353.22;;;16.65;100.00
20696;BME280;10507;52.754;13.040;2023-07-29T03:25:08;101336.25;;;16.62;100.00
20696;BME280;10507;52.754;13.040;2023-07-29T03:27:36;101293.50;;;16.56;100.00
20696;BME280;10507;52.754;13.040;2023-07-29T03:30:07;101265.31;;;16.48;100.00
20696;BME280;10507;52.754;13.040;2023-07-29T03:32:35;101242.44;;;16.40;100.00
20696;BME280;10507;52.754;13.040;2023-07-29T03:35:05;101229.47;;;16.33;100.00
20696;BME280;10507;52.754;13.040;2023-07-29T03:37:33;101261.59;;;16.36;100.00
20696;BME280;10507;52.754;13.040;2023-07-29T03:40:01;101294.41;;;16.42;100.00
20696;BME280;10507;52.754;13.040;2023-07-29T03:42:32;101325.69;;;16.45;100.00
20696;BME280;10507;52.754;13.040;2023-07-29T03:45:00;101332.13;;;16.42;100.00
20696;BME280;10507;52.754;13.040;2023-07-29T03:47:28;101345.69;;;16.41;100.00
20696;BME280;10507;52.754;13.040;2023-07-29T03:49:56;101364.28;;;16.46;100.00
20696;BME280;10507;52.754;13.040;2023-07-29T03:52:24;101367.28;;;16.41;100.00
20696;BME280;10507;52.754;13.040;2023-07-29T03:54:52;101346.88;;;16.37;100.00
20696;BME280;10507;52.754;13.040;2023-07-29T03:57:20;101350.81;;;16.31;100.00
20696;BME280;10507;52.754;13.040;2023-07-29T03:59:50;101370.38;;;16.35;100.00
20696;BME280;10507;52.754;13.040;2023-07-29T04:02:18;101353.44;;;16.33;100.00
20696;BME280;10507;52.754;13.040;2023-07-29T04:04:46;101315.50;;;16.21;100.00
20696;BME280;10507;52.754;13.040;2023-07-29T04:07:15;101346.28;;;16.32;100.00
20696;BME280;10507;52.754;13.040;2023-07-29T04:09:43;101360.38;;;16.37;100.00
20696;BME280;10507;52.754;13.040;2023-07-29T04:12:11;101370.94;;;16.40;100.00
20696;BME280;10507;52.754;13.040;2023-07-29T04:14:39;101375.28;;;16.42;100.00
20696;BME280;10507;52.754;13.040;2023-07-29T04:17:09;101373.81;;;16.51;100.00
20696;BME280;10507;52.754;13.040;2023-07-29T04:19:37;101368.06;;;16.57;100.00
20696;BME280;10507;52.754;13.040;2023-07-29T04:22:05;101354.94;;;16.66;100.00
20696;BME280;10507;52.754;13.040;2023-07-29T04:24:34;101302.19;;;16.61;100.00
20696;BME280;10507;52.754;13.040;2023-07-29T04:27:02;101273.84;;;16.69;100.00
20696;BME280;10507;52.754;13.040;2023-07-29T04:29:30;101253.50;;;16.77;100.00
20696;BME280;10507;52.754;13.040;2023-07-29T04:31:58;101235.88;;;16.86;100.00
20696;BME280;10507;52.754;13.040;2023-07-29T04:34:30;101185.50;;;16.87;100.00
20696;BME280;10507;52.754;13.040;2023-07-29T04:36:59;101183.78;;;16.98;100.00
20696;BME280;10507;52.754;13.040;2023-07-29T04:39:27;101161.78;;;17.04;100.00
20696;BME280;10507;52.754;13.040;2023-07-29T04:41:55;101143.03;;;17.16;100.00
20696;BME280;10507;52.754;13.040;2023-07-29T04:44:24;101137.31;;;17.33;100.00
20696;BME280;10507;52.754;13.040;2023-07-29T04:46:52;101149.25;;;17.55;100.00
20696;BME280;10507;52.754;13.040;2023-07-29T04:49:20;101142.09;;;17.79;100.00
20696;BME280;10507;52.754;13.040;2023-07-29T04:51:49;101116.31;;;18.12;100.00
20696;BME280;10507;52.754;13.040;2023-07-29T04:54:18;101078.22;;;18.63;100.00
20696;BME280;10507;52.754;13.040;2023-07-29T04:56:47;100981.38;;;19.02;100.00
20696;BME280;10507;52.754;13.040;2023-07-29T04:59:15;100886.69;;;19.35;100.00
20696;BME280;10507;52.754;13.040;2023-07-29T05:01:43;100778.00;;;19.39;100.00
20696;BME280;10507;52.754;13.040;2023-07-29T05:04:12;100698.22;;;19.43;100.00
20696;BME280;10507;52.754;13.040;2023-07-29T05:06:40;100672.09;;;19.63;100.00
20696;BME280;10507;52.754;13.040;2023-07-29T05:09:17;100629.75;;;19.83;100.00
20696;BME280;10507;52.754;13.040;2023-07-29T05:11:46;100592.16;;;20.09;100.00
20696;BME280;10507;52.754;13.040;2023-07-29T05:14:16;100624.50;;;20.81;100.00
20696;BME280;10507;52.754;13.040;2023-07-29T05:16:45;100644.03;;;21.70;100.00
20696;BME280;10507;52.754;13.040;2023-07-29T05:19:13;100573.22;;;22.27;100.00
20696;BME280;10507;52.754;13.040;2023-07-29T05:21:41;100505.44;;;22.78;100.00
20696;BME280;10507;52.754;13.040;2023-07-29T05:24:09;100484.28;;;23.24;97.34
20696;BME280;10507;52.754;13.040;2023-07-29T05:26:39;100479.47;;;24.11;92.92
20696;BME280;10507;52.754;13.040;2023-07-29T05:29:07;100347.13;;;24.40;89.75
20696;BME280;10507;52.754;13.040;2023-07-29T05:31:35;100222.34;;;24.17;89.29
20696;BME280;10507;52.754;13.040;2023-07-29T05:34:02;100315.72;;;24.44;89.63
20696;BME280;10507;52.754;13.040;2023-07-29T05:36:31;100187.59;;;24.51;88.03
20696;BME280;10507;52.754;13.040;2023-07-29T05:38:59;100242.91;;;25.07;87.05
20696;BME280;10507;52.754;13.040;2023-07-29T05:41:27;100153.66;;;25.22;85.74
20696;BME280;10507;52.754;13.040;2023-07-29T05:43:57;100128.94;;;25.39;85.00
20696;BME280;10507;52.754;13.040;2023-07-29T05:46:25;100111.78;;;25.75;84.19
20696;BME280;10507;52.754;13.040;2023-07-29T05:48:53;100009.31;;;25.26;84.77
20696;BME280;10507;52.754;13.040;2023-07-29T05:51:21;100016.47;;;25.42;84.85
20696;BME280;10507;52.754;13.040;2023-07-29T05:53:49;99896.25;;;25.12;85.00
20696;BME280;10507;52.754;13.040;2023-07-29T05:56:17;99948.78;;;24.99;86.76
20696;BME280;10507;52.754;13.040;2023-07-29T05:58:45;99928.75;;;25.37;85.37
20696;BME280;10507;52.754;13.040;2023-07-29T06:01:15;99963.72;;;25.78;84.69
20696;BME280;10507;52.754;13.040;2023-07-29T06:03:43;99950.94;;;26.43;81.82
20696;BME280;10507;52.754;13.040;2023-07-29T06:06:11;99794.66;;;26.38;80.81
20696;BME280;10507;52.754;13.040;2023-07-29T06:08:39;99877.72;;;26.73;81.09
20696;BME280;10507;52.754;13.040;2023-07-29T06:11:07;99855.84;;;26.80;80.38
20696;BME280;10507;52.754;13.040;2023-07-29T06:13:35;99739.78;;;26.46;81.00
20696;BME280;10507;52.754;13.040;2023-07-29T06:16:04;99726.44;;;26.78;80.09
20696;BME280;10507;52.754;13.040;2023-07-29T06:18:40;99684.34;;;26.99;78.96
20696;BME280;10507;52.754;13.040;2023-07-29T06:21:09;99693.00;;;26.95;79.72
20696;BME280;10507;52.754;13.040;2023-07-29T06:23:39;99572.84;;;26.92;78.62
20696;BME280;10507;52.754;13.040;2023-07-29T06:26:07;99721.75;;;27.26;79.15
20696;BME280;10507;52.754;13.040;2023-07-29T06:28:35;99619.69;;;27.37;77.79
20696;BME280;10507;52.754;13.040;2023-07-29T06:31:03;99624.28;;;27.04;79.43
20696;BME280;10507;52.754;13.040;2023-07-29T06:33:31;99658.06;;;27.51;77.98
20696;BME280;10507;52.754;13.040;2023-07-29T06:36:01;99597.06;;;27.75;76.29
20696;BME280;10507;52.754;13.040;2023-07-29T06:38:29;99598.69;;;28.10;76.12
20696;BME280;10507;52.754;13.040;2023-07-29T06:41:01;99548.28;;;28.36;74.64
20696;BME280;10507;52.754;13.040;2023-07-29T06:43:29;99538.91;;;28.18;75.79
20696;BME280;10507;52.754;13.040;2023-07-29T06:45:58;99624.44;;;28.60;75.17
20696;BME280;10507;52.754;13.040;2023-07-29T06:48:26;99327.06;;;27.65;75.68
20696;BME280;10507;52.754;13.040;2023-07-29T06:50:56;99450.53;;;27.51;77.10
20696;BME280;10507;52.754;13.040;2023-07-29T06:53:28;99367.06;;;26.62;78.66
20696;BME280;10507;52.754;13.040;2023-07-29T06:56:00;99387.00;;;25.89;80.73
20696;BME280;10507;52.754;13.040;2023-07-29T06:58:28;99437.97;;;25.14;83.89
20696;BME280;10507;52.754;13.040;2023-07-29T07:00:56;99511.28;;;24.61;86.54
20696;BME280;10507;52.754;13.040;2023-07-29T07:03:24;99546.28;;;24.57;86.93
20696;BME280;10507;52.754;13.040;2023-07-29T07:05:52;99559.69;;;24.74;86.68
20696;BME280;10507;52.754;13.040;2023-07-29T07:08:22;99560.91;;;24.50;87.90
20696;BME280;10507;52.754;13.040;2023-07-29T07:10:52;99552.81;;;24.20;88.83
20696;BME280;10507;52.754;13.040;2023-07-29T07:13:20;99657.41;;;24.78;88.44
20696;BME280;10507;52.754;13.040;2023-07-29T07:15:49;99655.69;;;25.42;86.48
20696;BME280;10507;52.754;13.040;2023-07-29T07:18:17;99634.03;;;25.97;84.75
20696;BME280;10507;52.754;13.040;2023-07-29T07:20:49;99552.19;;;26.63;80.75
20696;BME280;10507;52.754;13.040;2023-07-29T07:23:17;99567.00;;;27.29;79.53
20696;BME280;10507;52.754;13.040;2023-07-29T07:25:45;99542.97;;;27.11;79.74
20696;BME280;10507;52.754;13.040;2023-07-29T07:28:14;99511.63;;;27.78;76.92
20696;BME280;10507;52.754;13.040;2023-07-29T07:30:45;99511.50;;;28.12;75.88
20696;BME280;10507;52.754;13.040;2023-07-29T07:33:13;99532.09;;;28.66;75.34
20696;BME280;10507;52.754;13.040;2023-07-29T07:35:42;99441.09;;;28.56;75.19
20696;BME280;10507;52.754;13.040;2023-07-29T07:38:10;99422.56;;;28.19;75.10
20696;BME280;10507;52.754;13.040;2023-07-29T07:40:38;99424.97;;;29.10;72.76
20696;BME280;10507;52.754;13.040;2023-07-29T07:43:08;99466.41;;;29.33;72.12
20696;BME280;10507;52.754;13.040;2023-07-29T07:45:37;99395.97;;;29.32;72.40
20696;BME280;10507;52.754;13.040;2023-07-29T07:48:05;99444.22;;;29.65;71.99
20696;BME280;10507;52.754;13.040;2023-07-29T07:50:36;99430.22;;;30.45;69.64
20696;BME280;10507;52.754;13.040;2023-07-29T07:53:04;99485.38;;;30.81;69.38
20696;BME280;10507;52.754;13.040;2023-07-29T07:55:32;99368.84;;;31.21;66.30
20696;BME280;10507;52.754;13.040;2023-07-29T07:58:00;99426.63;;;30.69;69.25
20696;BME280;10507;52.754;13.040;2023-07-29T08:00:29;99361.56;;;30.79;68.61
20696;BME280;10507;52.754;13.040;2023-07-29T08:02:58;99194.41;;;30.09;68.95
20696;BME280;10507;52.754;13.040;2023-07-29T08:05:26;99305.47;;;29.31;71.37
20696;BME280;10507;52.754;13.040;2023-07-29T08:07:56;99373.38;;;28.43;73.16
20696;BME280;10507;52.754;13.040;2023-07-29T08:10:24;99518.03;;;28.11;76.91
20696;BME280;10507;52.754;13.040;2023-07-29T08:12:52;99451.25;;;27.13;77.07
20696;BME280;10507;52.754;13.040;2023-07-29T08:15:20;99561.91;;;27.19;78.22
20696;BME280;10507;52.754;13.040;2023-07-29T08:17:48;99619.69;;;27.37;79.34
20696;BME280;10507;52.754;13.040;2023-07-29T08:20:18;99558.97;;;27.41;77.55
20696;BME280;10507;52.754;13.040;2023-07-29T08:22:46;99519.34;;;27.10;77.65
20696;BME280;10507;52.754;13.040;2023-07-29T08:25:14;99601.75;;;27.15;79.08
20696;BME280;10507;52.754;13.040;2023-07-29T08:27:42;99601.13;;;27.26;79.01
20696;BME280;10507;52.754;13.040;2023-07-29T08:30:11;99588.44;;;26.72;80.31
20696;BME280;10507;52.754;13.040;2023-07-29T08:32:39;99606.59;;;26.80;80.46
20696;BME280;10507;52.754;13.040;2023-07-29T08:35:07;99588.75;;;26.36;81.06
20696;BME280;10507;52.754;13.040;2023-07-29T08:37:37;99634.00;;;26.38;81.51
20696;BME280;10507;52.754;13.040;2023-07-29T08:40:06;99620.44;;;26.10;81.96
20696;BME280;10507;52.754;13.040;2023-07-29T08:42:37;99657.25;;;25.51;83.78
20696;BME280;10507;52.754;13.040;2023-07-29T08:45:12;99723.25;;;25.69;85.21
20696;BME280;10507;52.754;13.040;2023-07-29T08:47:42;99703.94;;;25.78;84.61
20696;BME280;10507;52.754;13.040;2023-07-29T08:50:10;99662.81;;;25.64;84.33
20696;BME280;10507;52.754;13.040;2023-07-29T08:52:42;99685.88;;;25.55;84.57
20696;BME280;10507;52.754;13.040;2023-07-29T08:55:11;99684.84;;;25.56;84.12
20696;BME280;10507;52.754;13.040;2023-07-29T08:57:44;99723.25;;;25.69;85.06
20696;BME280;10507;52.754;13.040;2023-07-29T09:00:12;99668.72;;;25.40;84.63
20696;BME280;10507;52.754;13.040;2023-07-29T09:02:44;99720.91;;;25.23;86.82
20696;BME280;10507;52.754;13.040;2023-07-29T09:05:12;99766.00;;;25.34;87.38
20696;BME280;10507;52.754;13.040;2023-07-29T09:07:43;99767.69;;;25.35;86.97
20696;BME280;10507;52.754;13.040;2023-07-29T09:10:13;99728.19;;;25.38;86.07
20696;BME280;10507;52.754;13.040;2023-07-29T09:12:41;99700.38;;;25.27;85.51
20696;BME280;10507;52.754;13.040;2023-07-29T09:15:10;99745.47;;;25.38;86.57
20696;BME280;10507;52.754;13.040;2023-07-29T09:17:40;99722.22;;;25.27;86.47
20696;BME280;10507;52.754;13.040;2023-07-29T09:20:10;99724.50;;;25.45;85.67
20696;BME280;10507;52.754;13.040;2023-07-29T09:22:38;99735.59;;;25.65;85.46
20696;BME280;10507;52.754;13.040;2023-07-29T09:25:08;99725.97;;;25.69;85.32
20696;BME280;10507;52.754;13.040;2023-07-29T09:27:36;99717.59;;;25.78;85.60
20696;BME280;10507;52.754;13.040;2023-07-29T09:30:07;99654.38;;;25.59;84.83
20696;BME280;10507;52.754;13.040;2023-07-29T09:32:42;99701.81;;;26.01;83.88
20696;BME280;10507;52.754;13.040;2023-07-29T09:35:11;99631.94;;;25.70;83.29
20696;BME280;10507;52.754;13.040;2023-07-29T09:37:40;99686.41;;;25.65;84.02
20696;BME280;10507;52.754;13.040;2023-07-29T09:40:13;99710.00;;;25.73;84.87
20696;BME280;10507;52.754;13.040;2023-07-29T09:42:48;99690.94;;;26.08;82.95
20696;BME280;10507;52.754;13.040;2023-07-29T09:45:24;99724.41;;;26.51;82.38
20696;BME280;10507;52.754;13.040;2023-07-29T09:47:53;99695.88;;;26.74;82.10
20696;BME280;10507;52.754;13.040;2023-07-29T09:50:47;99594.72;;;26.66;80.04
20696;BME280;10507;52.754;13.040;2023-07-29T09:53:15;99568.47;;;26.17;81.02
20696;BME280;10507;52.754;13.040;2023-07-29T09:55:47;99611.47;;;25.60;82.57
20696;BME280;10507;52.754;13.040;2023-07-29T09:58:25;99623.78;;;25.49;83.55
20696;BME280;10507;52.754;13.040;2023-07-29T10:00:54;99646.66;;;25.41;84.21
20696;BME280;10507;52.754;13.040;2023-07-29T10:03:22;99606.03;;;25.10;84.04
20696;BME280;10507;52.754;13.040;2023-07-29T10:05:50;99697.38;;;24.86;87.54
20696;BME280;10507;52.754;13.040;2023-07-29T10:08:20;99729.16;;;24.57;90.21
20696;BME280;10507;52.754;13.040;2023-07-29T10:10:52;99768.66;;;24.17;92.72
20696;BME280;10507;52.754;13.040;2023-07-29T10:13:20;99810.66;;;23.93;96.26
20696;BME280;10507;52.754;13.040;2023-07-29T10:15:50;99834.72;;;23.89;99.72
20696;BME280;10507;52.754;13.040;2023-07-29T10:18:18;99861.31;;;23.87;100.00
20696;BME280;10507;52.754;13.040;2023-07-29T10:20:47;99883.50;;;23.84;100.00
20696;BME280;10507;52.754;13.040;2023-07-29T10:23:17;99885.84;;;23.87;100.00
20696;BME280;10507;52.754;13.040;2023-07-29T10:25:50;99869.75;;;23.69;100.00
20696;BME280;10507;52.754;13.040;2023-07-29T10:28:25;99898.38;;;23.73;100.00
20696;BME280;10507;52.754;13.040;2023-07-29T10:30:54;99913.78;;;23.89;100.00
20696;BME280;10507;52.754;13.040;2023-07-29T10:33:24;99899.31;;;23.89;100.00
20696;BME280;10507;52.754;13.040;2023-07-29T10:35:54;99895.91;;;23.86;100.00
20696;BME280;10507;52.754;13.040;2023-07-29T10:38:23;99893.63;;;23.67;100.00
20696;BME280;10507;52.754;13.040;2023-07-29T10:40:53;99930.81;;;23.60;100.00
20696;BME280;10507;52.754;13.040;2023-07-29T10:43:32;99939.25;;;23.42;100.00
20696;BME280;10507;52.754;13.040;2023-07-29T10:46:15;99934.72;;;23.26;100.00
20696;BME280;10507;52.754;13.040;2023-07-29T10:49:07;99939.03;;;22.96;100.00
20696;BME280;10507;52.754;13.040;2023-07-29T10:51:37;99952.00;;;22.86;100.00
20696;BME280;10507;52.754;13.040;2023-07-29T10:54:11;99960.72;;;22.65;100.00
20696;BME280;10507;52.754;13.040;2023-07-29T10:56:41;99958.00;;;22.48;100.00
20696;BME280;10507;52.754;13.040;2023-07-29T10:59:32;99980.31;;;22.35;100.00
20696;BME280;10507;52.754;13.040;2023-07-29T11:02:01;99980.94;;;22.21;100.00
20696;BME280;10507;52.754;13.040;2023-07-29T11:04:30;99964.75;;;22.03;100.00
20696;BME280;10507;52.754;13.040;2023-07-29T11:07:20;99936.34;;;21.81;100.00
20696;BME280;10507;52.754;13.040;2023-07-29T11:10:03;99928.34;;;21.55;100.00
20696;BME280;10507;52.754;13.040;2023-07-29T11:12:45;99948.25;;;21.37;100.00
20696;BME280;10507;52.754;13.040;2023-07-29T11:15:18;99964.28;;;21.14;100.00
20696;BME280;10507;52.754;13.040;2023-07-29T11:17:48;99981.00;;;21.02;100.00
20696;BME280;10507;52.754;13.040;2023-07-29T11:20:18;99991.19;;;21.00;100.00
20696;BME280;10507;52.754;13.040;2023-07-29T11:22:47;99992.28;;;20.89;100.00
20696;BME280;10507;52.754;13.040;2023-07-29T11:25:17;99990.97;;;20.93;100.00
20696;BME280;10507;52.754;13.040;2023-07-29T11:27:45;99979.34;;;20.83;100.00
20696;BME280;10507;52.754;13.040;2023-07-29T11:30:15;99993.19;;;20.97;100.00
20696;BME280;10507;52.754;13.040;2023-07-29T11:32:44;99987.28;;;21.02;100.00
20696;BME280;10507;52.754;13.040;2023-07-29T11:35:14;99975.44;;;21.03;100.00
20696;BME280;10507;52.754;13.040;2023-07-29T11:37:45;99960.16;;;21.02;100.00
20696;BME280;10507;52.754;13.040;2023-07-29T11:40:14;99949.06;;;21.22;100.00
20696;BME280;10507;52.754;13.040;2023-07-29T11:42:43;99975.66;;;21.44;100.00
20696;BME280;10507;52.754;13.040;2023-07-29T11:45:12;99969.28;;;21.62;100.00
20696;BME280;10507;52.754;13.040;2023-07-29T11:47:45;99923.00;;;21.45;100.00
20696;BME280;10507;52.754;13.040;2023-07-29T11:50:15;99959.69;;;21.49;100.00
20696;BME280;10507;52.754;13.040;2023-07-29T11:52:44;99967.84;;;21.49;100.00
20696;BME280;10507;52.754;13.040;2023-07-29T11:55:14;99999.13;;;21.53;100.00
20696;BME280;10507;52.754;13.040;2023-07-29T11:57:43;100001.53;;;21.65;100.00
20696;BME280;10507;52.754;13.040;2023-07-29T12:00:11;100009.72;;;21.73;100.00
20696;BME280;10507;52.754;13.040;2023-07-29T12:02:42;100034.72;;;21.85;100.00
20696;BME280;10507;52.754;13.040;2023-07-29T12:05:14;99989.63;;;21.66;100.00
20696;BME280;10507;52.754;13.040;2023-07-29T12:07:43;100015.16;;;21.73;100.00
20696;BME280;10507;52.754;13.040;2023-07-29T12:10:12;100034.88;;;21.83;100.00
20696;BME280;10507;52.754;13.040;2023-07-29T12:12:45;100060.06;;;22.01;100.00
20696;BME280;10507;52.754;13.040;2023-07-29T12:15:22;100065.88;;;22.15;100.00
20696;BME280;10507;52.754;13.040;2023-07-29T12:17:53;100045.41;;;22.37;100.00
20696;BME280;10507;52.754;13.040;2023-07-29T12:20:25;99969.91;;;22.23;100.00
20696;BME280;10507;52.754;13.040;2023-07-29T12:22:54;99950.00;;;22.14;100.00
20696;BME280;10507;52.754;13.040;2023-07-29T12:25:22;99946.75;;;22.10;100.00
20696;BME280;10507;52.754;13.040;2023-07-29T12:27:50;99957.28;;;22.05;100.00
20696;BME280;10507;52.754;13.040;2023-07-29T12:30:20;100028.19;;;22.20;100.00
20696;BME280;10507;52.754;13.040;2023-07-29T12:32:48;100024.41;;;22.13;100.00
20696;BME280;10507;52.754;13.040;2023-07-29T12:35:17;100047.09;;;22.30;100.00
20696;BME280;10507;52.754;13.040;2023-07-29T12:37:46;100010.72;;;22.55;100.00
20696;BME280;10507;52.754;13.040;2023-07-29T12:40:21;99973.47;;;22.80;100.00
20696;BME280;10507;52.754;13.040;2023-07-29T12:42:50;99976.16;;;23.05;100.00
20696;BME280;10507;52.754;13.040;2023-07-29T12:45:19;99945.16;;;23.14;100.00
20696;BME280;10507;52.754;13.040;2023-07-29T12:47:50;99934.19;;;23.31;100.00
20696;BME280;10507;52.754;13.040;2023-07-29T12:50:18;100015.22;;;23.84;100.00
20696;BME280;10507;52.754;13.040;2023-07-29T12:53:12;99908.50;;;23.88;100.00